sensor_id;sensor_type;location;lat;lon;timestamp;P1;durP1;ratioP1;P2;durP2;ratioP2
9108;SDS011;4590;51.462;6.692;2022-12-17T00:00:58;67.50;;;27.73;;
9108;SDS011;4590;51.462;6.692;2022-12-17T00:03:42;88.70;;;32.08;;
9108;SDS011;4590;51.462;6.692;2022-12-17T00:06:26;76.85;;;30.00;;
9108;SDS011;4590;51.462;6.692;2022-12-17T00:09:10;72.97;;;29.02;;
9108;SDS011;4590;51.462;6.692;2022-12-17T00:11:54;73.80;;;29.23;;
9108;SDS011;4590;51.462;6.692;2022-12-17T00:14:38;71.22;;;28.83;;
9108;SDS011;4590;51.462;6.692;2022-12-17T00:17:22;73.97;;;29.25;;
9108;SDS011;4590;51.462;6.692;2022-12-17T00:20:06;75.45;;;29.35;;
9108;SDS011;4590;51.462;6.692;2022-12-17T00:23:00;69.82;;;27.15;;
9108;SDS011;4590;51.462;6.692;2022-12-17T00:25:49;72.07;;;26.00;;
9108;SDS011;4590;51.462;6.692;2022-12-17T00:28:34;59.70;;;24.88;;
9108;SDS011;4590;51.462;6.692;2022-12-17T00:31:18;66.75;;;26.45;;
9108;SDS011;4590;51.462;6.692;2022-12-17T00:34:02;56.78;;;25.10;;
9108;SDS011;4590;51.462;6.692;2022-12-17T00:36:46;67.35;;;27.20;;
9108;SDS011;4590;51.462;6.692;2022-12-17T00:39:30;59.50;;;26.98;;
9108;SDS011;4590;51.462;6.692;2022-12-17T00:42:13;72.72;;;27.23;;
9108;SDS011;4590;51.462;6.692;2022-12-17T00:44:57;70.15;;;27.48;;
9108;SDS011;4590;51.462;6.692;2022-12-17T00:47:41;66.85;;;26.73;;
9108;SDS011;4590;51.462;6.692;2022-12-17T00:50:25;76.72;;;27.48;;
9108;SDS011;4590;51.462;6.692;2022-12-17T00:53:09;73.07;;;28.77;;
9108;SDS011;4590;51.462;6.692;2022-12-17T00:55:53;74.47;;;27.92;;
9108;SDS011;4590;51.462;6.692;2022-12-17T00:58:37;71.00;;;27.10;;
9108;SDS011;4590;51.462;6.692;2022-12-17T01:01:21;74.68;;;27.42;;
9108;SDS011;4590;51.462;6.692;2022-12-17T01:04:06;76.45;;;29.70;;
9108;SDS011;4590;51.462;6.692;2022-12-17T01:06:50;84.78;;;31.65;;
9108;SDS011;4590;51.462;6.692;2022-12-17T01:09:34;72.22;;;29.20;;
9108;SDS011;4590;51.462;6.692;2022-12-17T01:12:17;66.85;;;27.55;;
9108;SDS011;4590;51.462;6.692;2022-12-17T01:15:01;76.82;;;29.02;;
9108;SDS011;4590;51.462;6.692;2022-12-17T01:17:45;73.43;;;29.50;;
9108;SDS011;4590;51.462;6.692;2022-12-17T01:20:29;72.47;;;30.38;;
9108;SDS011;4590;51.462;6.692;2022-12-17T01:23:13;80.78;;;31.20;;
9108;SDS011;4590;51.462;6.692;2022-12-17T01:25:57;70.68;;;28.02;;
9108;SDS011;4590;51.462;6.692;2022-12-17T01:28:41;72.00;;;27.50;;
9108;SDS011;4590;51.462;6.692;2022-12-17T01:31:25;66.88;;;28.55;;
9108;SDS011;4590;51.462;6.692;2022-12-17T01:34:10;70.80;;;27.63;;
9108;SDS011;4590;51.462;6.692;2022-12-17T01:36:54;72.85;;;28.80;;
9108;SDS011;4590;51.462;6.692;2022-12-17T01:39:38;70.53;;;28.45;;
9108;SDS011;4590;51.462;6.692;2022-12-17T01:42:22;71.63;;;27.90;;
9108;SDS011;4590;51.462;6.692;2022-12-17T01:45:12;74.53;;;30.50;;
9108;SDS011;4590;51.462;6.692;2022-12-17T01:48:03;65.07;;;26.15;;
9108;SDS011;4590;51.462;6.692;2022-12-17T01:50:53;61.63;;;24.77;;
9108;SDS011;4590;51.462;6.692;2022-12-17T01:53:40;62.60;;;23.33;;
9108;SDS011;4590;51.462;6.692;2022-12-17T01:56:27;61.58;;;25.00;;
9108;SDS011;4590;51.462;6.692;2022-12-17T01:59:11;63.95;;;25.02;;
9108;SDS011;4590;51.462;6.692;2022-12-17T02:01:56;62.65;;;25.33;;
9108;SDS011;4590;51.462;6.692;2022-12-17T02:04:41;62.75;;;26.00;;
9108;SDS011;4590;51.462;6.692;2022-12-17T02:07:28;63.15;;;25.65;;
9108;SDS011;4590;51.462;6.692;2022-12-17T02:10:24;72.45;;;27.42;;
9108;SDS011;4590;51.462;6.692;2022-12-17T02:13:24;67.47;;;25.52;;
9108;SDS011;4590;51.462;6.692;2022-12-17T02:22:15;64.50;;;26.45;;
9108;SDS011;4590;51.462;6.692;2022-12-17T02:25:11;64.93;;;25.58;;
9108;SDS011;4590;51.462;6.692;2022-12-17T02:28:05;75.82;;;27.25;;
9108;SDS011;4590;51.462;6.692;2022-12-17T02:30:49;77.60;;;29.77;;
9108;SDS011;4590;51.462;6.692;2022-12-17T02:33:33;82.72;;;30.23;;
9108;SDS011;4590;51.462;6.692;2022-12-17T02:36:17;84.22;;;30.65;;
9108;SDS011;4590;51.462;6.692;2022-12-17T02:39:01;77.47;;;29.20;;
9108;SDS011;4590;51.462;6.692;2022-12-17T02:41:49;77.95;;;29.83;;
9108;SDS011;4590;51.462;6.692;2022-12-17T02:44:36;80.20;;;29.25;;
9108;SDS011;4590;51.462;6.692;2022-12-17T02:47:23;73.35;;;29.63;;
9108;SDS011;4590;51.462;6.692;2022-12-17T02:50:21;77.25;;;29.10;;
9108;SDS011;4590;51.462;6.692;2022-12-17T02:53:05;80.15;;;28.95;;
9108;SDS011;4590;51.462;6.692;2022-12-17T02:55:49;75.75;;;30.42;;
9108;SDS011;4590;51.462;6.692;2022-12-17T02:58:33;72.50;;;29.17;;
9108;SDS011;4590;51.462;6.692;2022-12-17T03:01:17;81.90;;;31.45;;
9108;SDS011;4590;51.462;6.692;2022-12-17T03:04:01;76.32;;;29.10;;
9108;SDS011;4590;51.462;6.692;2022-12-17T03:06:45;80.53;;;32.35;;
9108;SDS011;4590;51.462;6.692;2022-12-17T03:09:29;74.85;;;30.30;;
9108;SDS011;4590;51.462;6.692;2022-12-17T03:12:13;76.47;;;29.38;;
9108;SDS011;4590;51.462;6.692;2022-12-17T03:14:57;68.07;;;28.15;;
9108;SDS011;4590;51.462;6.692;2022-12-17T03:17:41;66.78;;;27.90;;
9108;SDS011;4590;51.462;6.692;2022-12-17T03:20:25;70.30;;;27.23;;
9108;SDS011;4590;51.462;6.692;2022-12-17T03:23:09;65.70;;;27.45;;
9108;SDS011;4590;51.462;6.692;2022-12-17T03:25:57;63.72;;;25.85;;
9108;SDS011;4590;51.462;6.692;2022-12-17T03:28:42;70.75;;;28.15;;
9108;SDS011;4590;51.462;6.692;2022-12-17T03:31:26;68.50;;;26.80;;
9108;SDS011;4590;51.462;6.692;2022-12-17T03:34:10;78.50;;;30.63;;
9108;SDS011;4590;51.462;6.692;2022-12-17T03:36:54;70.38;;;27.08;;
9108;SDS011;4590;51.462;6.692;2022-12-17T03:39:38;61.40;;;25.60;;
9108;SDS011;4590;51.462;6.692;2022-12-17T03:42:22;66.55;;;26.10;;
9108;SDS011;4590;51.462;6.692;2022-12-17T03:45:06;64.60;;;26.75;;
9108;SDS011;4590;51.462;6.692;2022-12-17T03:47:50;64.30;;;24.13;;
9108;SDS011;4590;51.462;6.692;2022-12-17T03:50:34;61.85;;;24.92;;
9108;SDS011;4590;51.462;6.692;2022-12-17T03:53:18;64.18;;;27.00;;
9108;SDS011;4590;51.462;6.692;2022-12-17T03:56:02;65.80;;;26.15;;
9108;SDS011;4590;51.462;6.692;2022-12-17T03:58:46;64.25;;;25.77;;
9108;SDS011;4590;51.462;6.692;2022-12-17T04:01:30;65.97;;;26.45;;
9108;SDS011;4590;51.462;6.692;2022-12-17T04:04:13;58.97;;;25.75;;
9108;SDS011;4590;51.462;6.692;2022-12-17T04:07:08;55.95;;;24.38;;
9108;SDS011;4590;51.462;6.692;2022-12-17T04:09:52;60.55;;;24.50;;
9108;SDS011;4590;51.462;6.692;2022-12-17T04:12:36;60.40;;;25.20;;
9108;SDS011;4590;51.462;6.692;2022-12-17T04:15:20;56.70;;;23.98;;
9108;SDS011;4590;51.462;6.692;2022-12-17T04:18:04;59.65;;;22.98;;
9108;SDS011;4590;51.462;6.692;2022-12-17T04:20:48;57.42;;;23.60;;
9108;SDS011;4590;51.462;6.692;2022-12-17T04:23:32;55.88;;;23.77;;
9108;SDS011;4590;51.462;6.692;2022-12-17T04:26:33;61.20;;;24.45;;
9108;SDS011;4590;51.462;6.692;2022-12-17T04:29:17;57.50;;;23.27;;
9108;SDS011;4590;51.462;6.692;2022-12-17T04:32:00;56.50;;;24.27;;
9108;SDS011;4590;51.462;6.692;2022-12-17T04:34:44;56.90;;;24.02;;
9108;SDS011;4590;51.462;6.692;2022-12-17T04:37:28;58.35;;;23.67;;
9108;SDS011;4590;51.462;6.692;2022-12-17T04:40:12;55.15;;;23.88;;
9108;SDS011;4590;51.462;6.692;2022-12-17T04:43:03;57.33;;;22.85;;
9108;SDS011;4590;51.462;6.692;2022-12-17T04:45:49;55.92;;;23.95;;
9108;SDS011;4590;51.462;6.692;2022-12-17T04:48:33;53.13;;;22.63;;
9108;SDS011;4590;51.462;6.692;2022-12-17T04:51:17;55.58;;;23.38;;
9108;SDS011;4590;51.462;6.692;2022-12-17T04:54:01;51.85;;;22.23;;
9108;SDS011;4590;51.462;6.692;2022-12-17T04:56:45;47.90;;;21.95;;
9108;SDS011;4590;51.462;6.692;2022-12-17T04:59:29;49.90;;;21.65;;
9108;SDS011;4590;51.462;6.692;2022-12-17T05:02:13;51.22;;;21.70;;
9108;SDS011;4590;51.462;6.692;2022-12-17T05:04:56;48.33;;;20.98;;
9108;SDS011;4590;51.462;6.692;2022-12-17T05:07:41;49.05;;;22.38;;
9108;SDS011;4590;51.462;6.692;2022-12-17T05:10:25;47.70;;;20.55;;
9108;SDS011;4590;51.462;6.692;2022-12-17T05:13:09;49.13;;;22.05;;
9108;SDS011;4590;51.462;6.692;2022-12-17T05:15:56;50.05;;;21.50;;
9108;SDS011;4590;51.462;6.692;2022-12-17T05:18:40;49.63;;;22.55;;
9108;SDS011;4590;51.462;6.692;2022-12-17T05:21:24;49.70;;;22.77;;
9108;SDS011;4590;51.462;6.692;2022-12-17T05:24:08;45.67;;;21.17;;
9108;SDS011;4590;51.462;6.692;2022-12-17T05:26:52;46.25;;;21.02;;
9108;SDS011;4590;51.462;6.692;2022-12-17T05:29:36;48.10;;;21.17;;
9108;SDS011;4590;51.462;6.692;2022-12-17T05:32:20;51.95;;;21.67;;
9108;SDS011;4590;51.462;6.692;2022-12-17T05:35:04;49.75;;;21.05;;
9108;SDS011;4590;51.462;6.692;2022-12-17T05:37:48;51.28;;;20.45;;
9108;SDS011;4590;51.462;6.692;2022-12-17T05:40:33;45.47;;;21.35;;
9108;SDS011;4590;51.462;6.692;2022-12-17T05:43:17;52.08;;;21.83;;
9108;SDS011;4590;51.462;6.692;2022-12-17T05:46:01;52.17;;;21.33;;
9108;SDS011;4590;51.462;6.692;2022-12-17T05:48:45;55.30;;;22.13;;
9108;SDS011;4590;51.462;6.692;2022-12-17T05:51:29;52.45;;;22.23;;
9108;SDS011;4590;51.462;6.692;2022-12-17T05:54:13;43.65;;;19.02;;
9108;SDS011;4590;51.462;6.692;2022-12-17T05:56:57;50.55;;;22.65;;
9108;SDS011;4590;51.462;6.692;2022-12-17T05:59:41;54.50;;;23.40;;
9108;SDS011;4590;51.462;6.692;2022-12-17T06:02:25;53.45;;;22.15;;
9108;SDS011;4590;51.462;6.692;2022-12-17T06:05:09;47.95;;;22.08;;
9108;SDS011;4590;51.462;6.692;2022-12-17T06:08:00;43.97;;;19.83;;
9108;SDS011;4590;51.462;6.692;2022-12-17T06:10:45;44.17;;;19.17;;
9108;SDS011;4590;51.462;6.692;2022-12-17T06:13:29;45.30;;;21.77;;
9108;SDS011;4590;51.462;6.692;2022-12-17T06:16:13;46.35;;;20.77;;
9108;SDS011;4590;51.462;6.692;2022-12-17T06:18:57;53.15;;;22.60;;
9108;SDS011;4590;51.462;6.692;2022-12-17T06:21:41;49.38;;;21.45;;
9108;SDS011;4590;51.462;6.692;2022-12-17T06:24:25;50.55;;;20.98;;
9108;SDS011;4590;51.462;6.692;2022-12-17T06:27:08;44.95;;;19.67;;
9108;SDS011;4590;51.462;6.692;2022-12-17T06:29:52;47.42;;;21.35;;
9108;SDS011;4590;51.462;6.692;2022-12-17T06:32:36;45.75;;;21.27;;
9108;SDS011;4590;51.462;6.692;2022-12-17T06:35:20;47.45;;;21.00;;
9108;SDS011;4590;51.462;6.692;2022-12-17T06:38:05;44.30;;;20.83;;
9108;SDS011;4590;51.462;6.692;2022-12-17T06:40:52;50.10;;;22.73;;
9108;SDS011;4590;51.462;6.692;2022-12-17T06:43:36;47.55;;;20.73;;
9108;SDS011;4590;51.462;6.692;2022-12-17T06:46:20;44.13;;;21.42;;
9108;SDS011;4590;51.462;6.692;2022-12-17T06:49:05;47.97;;;20.63;;
9108;SDS011;4590;51.462;6.692;2022-12-17T06:51:48;47.80;;;22.27;;
9108;SDS011;4590;51.462;6.692;2022-12-17T06:54:33;51.17;;;22.42;;
9108;SDS011;4590;51.462;6.692;2022-12-17T06:57:17;49.85;;;21.88;;
9108;SDS011;4590;51.462;6.692;2022-12-17T07:00:01;44.05;;;20.17;;
9108;SDS011;4590;51.462;6.692;2022-12-17T07:02:44;47.15;;;21.00;;
9108;SDS011;4590;51.462;6.692;2022-12-17T07:05:28;45.33;;;20.80;;
9108;SDS011;4590;51.462;6.692;2022-12-17T07:08:14;42.78;;;20.67;;
9108;SDS011;4590;51.462;6.692;2022-12-17T07:10:58;47.10;;;21.95;;
9108;SDS011;4590;51.462;6.692;2022-12-17T07:13:43;49.47;;;22.83;;
9108;SDS011;4590;51.462;6.692;2022-12-17T07:16:26;48.47;;;22.33;;
9108;SDS011;4590;51.462;6.692;2022-12-17T07:19:11;49.13;;;22.08;;
9108;SDS011;4590;51.462;6.692;2022-12-17T07:21:54;49.15;;;21.20;;
9108;SDS011;4590;51.462;6.692;2022-12-17T07:24:38;49.55;;;22.80;;
9108;SDS011;4590;51.462;6.692;2022-12-17T07:27:22;49.80;;;23.80;;
9108;SDS011;4590;51.462;6.692;2022-12-17T07:30:06;62.50;;;26.67;;
9108;SDS011;4590;51.462;6.692;2022-12-17T07:33:00;52.75;;;23.42;;
9108;SDS011;4590;51.462;6.692;2022-12-17T07:35:46;54.45;;;23.73;;
9108;SDS011;4590;51.462;6.692;2022-12-17T07:38:30;51.33;;;24.05;;
9108;SDS011;4590;51.462;6.692;2022-12-17T07:41:14;55.42;;;22.50;;
9108;SDS011;4590;51.462;6.692;2022-12-17T07:43:58;56.70;;;25.60;;
9108;SDS011;4590;51.462;6.692;2022-12-17T07:46:42;54.08;;;24.70;;
9108;SDS011;4590;51.462;6.692;2022-12-17T07:49:26;62.95;;;28.05;;
9108;SDS011;4590;51.462;6.692;2022-12-17T07:52:10;55.97;;;25.98;;
9108;SDS011;4590;51.462;6.692;2022-12-17T07:54:54;59.60;;;25.73;;
9108;SDS011;4590;51.462;6.692;2022-12-17T07:57:38;53.22;;;23.95;;
9108;SDS011;4590;51.462;6.692;2022-12-17T08:00:22;50.63;;;21.63;;
9108;SDS011;4590;51.462;6.692;2022-12-17T08:03:06;52.65;;;22.75;;
9108;SDS011;4590;51.462;6.692;2022-12-17T08:05:50;51.17;;;22.80;;
9108;SDS011;4590;51.462;6.692;2022-12-17T08:08:34;49.75;;;22.05;;
9108;SDS011;4590;51.462;6.692;2022-12-17T08:11:18;44.78;;;21.45;;
9108;SDS011;4590;51.462;6.692;2022-12-17T08:14:02;47.08;;;22.27;;
9108;SDS011;4590;51.462;6.692;2022-12-17T08:16:47;50.42;;;21.27;;
9108;SDS011;4590;51.462;6.692;2022-12-17T08:19:31;52.75;;;23.42;;
9108;SDS011;4590;51.462;6.692;2022-12-17T08:22:15;51.47;;;23.02;;
9108;SDS011;4590;51.462;6.692;2022-12-17T08:24:59;54.95;;;22.80;;
9108;SDS011;4590;51.462;6.692;2022-12-17T08:27:43;54.22;;;22.90;;
9108;SDS011;4590;51.462;6.692;2022-12-17T08:30:26;55.42;;;22.63;;
9108;SDS011;4590;51.462;6.692;2022-12-17T08:33:10;45.38;;;19.60;;
9108;SDS011;4590;51.462;6.692;2022-12-17T08:35:55;42.05;;;19.45;;
9108;SDS011;4590;51.462;6.692;2022-12-17T08:38:40;43.70;;;18.48;;
9108;SDS011;4590;51.462;6.692;2022-12-17T08:41:25;46.80;;;19.92;;
9108;SDS011;4590;51.462;6.692;2022-12-17T08:44:09;47.17;;;20.40;;
9108;SDS011;4590;51.462;6.692;2022-12-17T08:46:52;46.28;;;19.92;;
9108;SDS011;4590;51.462;6.692;2022-12-17T08:49:37;52.15;;;22.65;;
9108;SDS011;4590;51.462;6.692;2022-12-17T08:52:21;49.88;;;19.63;;
9108;SDS011;4590;51.462;6.692;2022-12-17T08:55:04;50.13;;;19.45;;
9108;SDS011;4590;51.462;6.692;2022-12-17T08:57:55;55.63;;;22.50;;
9108;SDS011;4590;51.462;6.692;2022-12-17T09:00:41;53.95;;;22.33;;
9108;SDS011;4590;51.462;6.692;2022-12-17T09:03:25;52.95;;;21.75;;
9108;SDS011;4590;51.462;6.692;2022-12-17T09:06:09;54.92;;;22.17;;
9108;SDS011;4590;51.462;6.692;2022-12-17T09:08:54;44.80;;;19.33;;
9108;SDS011;4590;51.462;6.692;2022-12-17T09:11:37;44.17;;;19.42;;
9108;SDS011;4590;51.462;6.692;2022-12-17T09:14:22;50.15;;;20.98;;
9108;SDS011;4590;51.462;6.692;2022-12-17T09:17:06;48.83;;;20.35;;
9108;SDS011;4590;51.462;6.692;2022-12-17T09:19:50;51.03;;;19.88;;
9108;SDS011;4590;51.462;6.692;2022-12-17T09:22:34;50.22;;;20.38;;
9108;SDS011;4590;51.462;6.692;2022-12-17T09:25:18;49.78;;;20.95;;
9108;SDS011;4590;51.462;6.692;2022-12-17T09:28:02;47.83;;;19.27;;
9108;SDS011;4590;51.462;6.692;2022-12-17T09:30:46;49.47;;;19.35;;
9108;SDS011;4590;51.462;6.692;2022-12-17T09:33:30;50.63;;;21.27;;
9108;SDS011;4590;51.462;6.692;2022-12-17T09:36:14;57.20;;;22.63;;
9108;SDS011;4590;51.462;6.692;2022-12-17T09:38:58;52.88;;;23.85;;
9108;SDS011;4590;51.462;6.692;2022-12-17T09:42:04;60.08;;;24.67;;
9108;SDS011;4590;51.462;6.692;2022-12-17T09:45:00;56.22;;;23.35;;
9108;SDS011;4590;51.462;6.692;2022-12-17T09:48:00;53.00;;;22.88;;
9108;SDS011;4590;51.462;6.692;2022-12-17T09:50:56;54.42;;;21.98;;
9108;SDS011;4590;51.462;6.692;2022-12-17T09:53:44;69.43;;;28.30;;
9108;SDS011;4590;51.462;6.692;2022-12-17T09:56:31;59.92;;;25.35;;
9108;SDS011;4590;51.462;6.692;2022-12-17T09:59:19;60.75;;;24.42;;
9108;SDS011;4590;51.462;6.692;2022-12-17T10:02:18;63.95;;;24.23;;
9108;SDS011;4590;51.462;6.692;2022-12-17T10:05:11;58.88;;;23.73;;
9108;SDS011;4590;51.462;6.692;2022-12-17T10:08:02;46.05;;;19.77;;
9108;SDS011;4590;51.462;6.692;2022-12-17T10:10:48;49.50;;;19.90;;
9108;SDS011;4590;51.462;6.692;2022-12-17T10:13:32;51.88;;;21.15;;
9108;SDS011;4590;51.462;6.692;2022-12-17T10:16:23;59.50;;;24.48;;
9108;SDS011;4590;51.462;6.692;2022-12-17T10:19:28;59.30;;;26.05;;
9108;SDS011;4590;51.462;6.692;2022-12-17T10:22:15;61.22;;;24.75;;
9108;SDS011;4590;51.462;6.692;2022-12-17T10:25:01;62.13;;;25.20;;
9108;SDS011;4590;51.462;6.692;2022-12-17T10:27:48;55.65;;;23.63;;
9108;SDS011;4590;51.462;6.692;2022-12-17T10:30:32;57.38;;;23.38;;
9108;SDS011;4590;51.462;6.692;2022-12-17T10:33:18;63.10;;;24.33;;
9108;SDS011;4590;51.462;6.692;2022-12-17T10:36:04;65.47;;;25.35;;
9108;SDS011;4590;51.462;6.692;2022-12-17T10:39:01;53.20;;;20.73;;
9108;SDS011;4590;51.462;6.692;2022-12-17T10:41:45;59.28;;;23.48;;
9108;SDS011;4590;51.462;6.692;2022-12-17T10:44:32;52.08;;;21.52;;
9108;SDS011;4590;51.462;6.692;2022-12-17T10:50:10;48.95;;;20.90;;
9108;SDS011;4590;51.462;6.692;2022-12-17T10:59:42;50.63;;;21.15;;
9108;SDS011;4590;51.462;6.692;2022-12-17T11:02:27;64.68;;;24.65;;
9108;SDS011;4590;51.462;6.692;2022-12-17T11:05:23;50.22;;;22.38;;
9108;SDS011;4590;51.462;6.692;2022-12-17T11:08:10;62.83;;;25.58;;
9108;SDS011;4590;51.462;6.692;2022-12-17T15:21:54;62.72;;;28.02;;
9108;SDS011;4590;51.462;6.692;2022-12-17T15:24:19;68.07;;;29.20;;
9108;SDS011;4590;51.462;6.692;2022-12-17T15:26:45;78.77;;;35.07;;
9108;SDS011;4590;51.462;6.692;2022-12-17T15:29:11;74.90;;;32.13;;
9108;SDS011;4590;51.462;6.692;2022-12-17T15:31:37;85.87;;;36.07;;
9108;SDS011;4590;51.462;6.692;2022-12-17T15:34:02;75.27;;;30.83;;
9108;SDS011;4590;51.462;6.692;2022-12-17T15:36:28;72.00;;;30.30;;
9108;SDS011;4590;51.462;6.692;2022-12-17T15:38:55;59.08;;;27.27;;
9108;SDS011;4590;51.462;6.692;2022-12-17T15:41:23;69.07;;;29.00;;
9108;SDS011;4590;51.462;6.692;2022-12-17T15:44:07;87.32;;;40.08;;
9108;SDS011;4590;51.462;6.692;2022-12-17T15:46:46;56.47;;;27.30;;
9108;SDS011;4590;51.462;6.692;2022-12-17T15:49:12;54.00;;;28.35;;
9108;SDS011;4590;51.462;6.692;2022-12-17T15:51:38;52.13;;;26.88;;
9108;SDS011;4590;51.462;6.692;2022-12-17T15:54:04;44.30;;;23.50;;
9108;SDS011;4590;51.462;6.692;2022-12-17T16:03:55;48.85;;;25.67;;
9108;SDS011;4590;51.462;6.692;2022-12-17T16:07:20;46.70;;;25.67;;
9108;SDS011;4590;51.462;6.692;2022-12-17T16:09:47;51.28;;;26.25;;
9108;SDS011;4590;51.462;6.692;2022-12-17T16:12:12;49.30;;;25.93;;
9108;SDS011;4590;51.462;6.692;2022-12-17T16:14:37;45.17;;;22.37;;
9108;SDS011;4590;51.462;6.692;2022-12-17T16:17:02;38.83;;;21.43;;
9108;SDS011;4590;51.462;6.692;2022-12-17T16:19:28;39.47;;;20.90;;
9108;SDS011;4590;51.462;6.692;2022-12-17T16:21:53;43.27;;;21.23;;
9108;SDS011;4590;51.462;6.692;2022-12-17T16:24:18;46.20;;;24.53;;
9108;SDS011;4590;51.462;6.692;2022-12-17T16:26:44;48.53;;;23.20;;
9108;SDS011;4590;51.462;6.692;2022-12-17T16:29:09;43.70;;;23.33;;
9108;SDS011;4590;51.462;6.692;2022-12-17T16:31:34;46.83;;;23.73;;
9108;SDS011;4590;51.462;6.692;2022-12-17T16:33:59;42.27;;;21.93;;
9108;SDS011;4590;51.462;6.692;2022-12-17T16:36:26;42.77;;;22.37;;
9108;SDS011;4590;51.462;6.692;2022-12-17T16:38:52;47.63;;;23.67;;
9108;SDS011;4590;51.462;6.692;2022-12-17T16:41:19;48.72;;;24.33;;
9108;SDS011;4590;51.462;6.692;2022-12-17T16:43:45;53.00;;;25.38;;
9108;SDS011;4590;51.462;6.692;2022-12-17T16:46:22;47.58;;;24.25;;
9108;SDS011;4590;51.462;6.692;2022-12-17T16:48:50;48.13;;;25.15;;
9108;SDS011;4590;51.462;6.692;2022-12-17T16:51:16;44.83;;;23.92;;
9108;SDS011;4590;51.462;6.692;2022-12-17T16:53:43;55.10;;;25.80;;
9108;SDS011;4590;51.462;6.692;2022-12-17T16:56:13;57.38;;;27.63;;
9108;SDS011;4590;51.462;6.692;2022-12-17T16:58:47;44.72;;;24.20;;
9108;SDS011;4590;51.462;6.692;2022-12-17T17:01:34;46.20;;;24.08;;
9108;SDS011;4590;51.462;6.692;2022-12-17T17:03:59;46.03;;;24.45;;
9108;SDS011;4590;51.462;6.692;2022-12-17T17:06:25;46.70;;;24.03;;
9108;SDS011;4590;51.462;6.692;2022-12-17T17:08:51;46.92;;;23.77;;
9108;SDS011;4590;51.462;6.692;2022-12-17T17:11:17;51.30;;;26.57;;
9108;SDS011;4590;51.462;6.692;2022-12-17T17:13:47;50.40;;;25.50;;
9108;SDS011;4590;51.462;6.692;2022-12-17T17:16:15;49.03;;;25.65;;
9108;SDS011;4590;51.462;6.692;2022-12-17T17:18:41;46.13;;;24.98;;
9108;SDS011;4590;51.462;6.692;2022-12-17T17:23:45;46.55;;;24.58;;
9108;SDS011;4590;51.462;6.692;2022-12-17T17:26:11;47.97;;;25.38;;
9108;SDS011;4590;51.462;6.692;2022-12-17T17:28:37;45.03;;;24.33;;
9108;SDS011;4590;51.462;6.692;2022-12-17T17:31:04;49.80;;;24.75;;
9108;SDS011;4590;51.462;6.692;2022-12-17T17:33:32;48.17;;;24.65;;
9108;SDS011;4590;51.462;6.692;2022-12-17T17:36:03;47.63;;;25.60;;
9108;SDS011;4590;51.462;6.692;2022-12-17T17:38:33;48.83;;;26.23;;
9108;SDS011;4590;51.462;6.692;2022-12-17T17:41:01;50.42;;;25.45;;
9108;SDS011;4590;51.462;6.692;2022-12-17T17:43:26;49.35;;;24.55;;
9108;SDS011;4590;51.462;6.692;2022-12-17T17:45:52;46.50;;;25.83;;
9108;SDS011;4590;51.462;6.692;2022-12-17T17:48:18;46.97;;;25.67;;
9108;SDS011;4590;51.462;6.692;2022-12-17T17:50:43;48.53;;;24.88;;
9108;SDS011;4590;51.462;6.692;2022-12-17T17:53:20;44.55;;;25.42;;
9108;SDS011;4590;51.462;6.692;2022-12-17T17:55:45;47.93;;;25.10;;
9108;SDS011;4590;51.462;6.692;2022-12-17T17:58:10;47.17;;;26.07;;
9108;SDS011;4590;51.462;6.692;2022-12-17T18:00:36;49.10;;;25.57;;
9108;SDS011;4590;51.462;6.692;2022-12-17T18:03:01;46.90;;;24.33;;
9108;SDS011;4590;51.462;6.692;2022-12-17T18:05:27;47.53;;;24.90;;
9108;SDS011;4590;51.462;6.692;2022-12-17T18:07:52;48.00;;;23.27;;
9108;SDS011;4590;51.462;6.692;2022-12-17T18:10:20;45.57;;;24.57;;
9108;SDS011;4590;51.462;6.692;2022-12-17T18:12:45;44.00;;;23.48;;
9108;SDS011;4590;51.462;6.692;2022-12-17T18:15:29;46.75;;;23.52;;
9108;SDS011;4590;51.462;6.692;2022-12-17T18:17:55;48.37;;;25.40;;
9108;SDS011;4590;51.462;6.692;2022-12-17T18:20:20;48.53;;;24.50;;
9108;SDS011;4590;51.462;6.692;2022-12-17T18:22:45;43.37;;;22.50;;
9108;SDS011;4590;51.462;6.692;2022-12-17T18:25:10;42.00;;;21.67;;
9108;SDS011;4590;51.462;6.692;2022-12-17T18:27:36;42.10;;;22.00;;
9108;SDS011;4590;51.462;6.692;2022-12-17T18:30:02;43.93;;;22.13;;
9108;SDS011;4590;51.462;6.692;2022-12-17T18:32:27;37.67;;;19.83;;
9108;SDS011;4590;51.462;6.692;2022-12-17T18:34:53;35.90;;;18.70;;
9108;SDS011;4590;51.462;6.692;2022-12-17T18:37:21;35.72;;;18.52;;
9108;SDS011;4590;51.462;6.692;2022-12-17T18:39:47;37.53;;;19.50;;
9108;SDS011;4590;51.462;6.692;2022-12-17T18:42:14;34.97;;;17.83;;
9108;SDS011;4590;51.462;6.692;2022-12-17T18:44:58;36.20;;;18.65;;
9108;SDS011;4590;51.462;6.692;2022-12-17T18:47:23;37.57;;;18.33;;
9108;SDS011;4590;51.462;6.692;2022-12-17T18:49:49;36.17;;;19.38;;
9108;SDS011;4590;51.462;6.692;2022-12-17T18:52:14;38.43;;;19.27;;
9108;SDS011;4590;51.462;6.692;2022-12-17T18:54:39;35.20;;;18.13;;
9108;SDS011;4590;51.462;6.692;2022-12-17T18:57:05;31.57;;;17.60;;
9108;SDS011;4590;51.462;6.692;2022-12-17T18:59:30;33.53;;;17.20;;
9108;SDS011;4590;51.462;6.692;2022-12-17T19:01:56;32.87;;;17.20;;
9108;SDS011;4590;51.462;6.692;2022-12-17T19:04:22;36.00;;;18.65;;
9108;SDS011;4590;51.462;6.692;2022-12-17T19:06:48;39.15;;;19.17;;
9108;SDS011;4590;51.462;6.692;2022-12-17T19:11:46;35.13;;;19.08;;
9108;SDS011;4590;51.462;6.692;2022-12-17T19:14:12;37.25;;;19.30;;
9108;SDS011;4590;51.462;6.692;2022-12-17T19:16:38;38.10;;;19.60;;
9108;SDS011;4590;51.462;6.692;2022-12-17T19:19:03;33.03;;;18.40;;
9108;SDS011;4590;51.462;6.692;2022-12-17T19:21:30;31.88;;;16.20;;
9108;SDS011;4590;51.462;6.692;2022-12-17T19:24:05;36.17;;;18.38;;
9108;SDS011;4590;51.462;6.692;2022-12-17T19:26:34;30.10;;;17.20;;
9108;SDS011;4590;51.462;6.692;2022-12-17T19:29:00;33.25;;;16.77;;
9108;SDS011;4590;51.462;6.692;2022-12-17T19:31:30;36.17;;;19.63;;
9108;SDS011;4590;51.462;6.692;2022-12-17T19:34:00;33.67;;;18.27;;
9108;SDS011;4590;51.462;6.692;2022-12-17T19:36:29;34.05;;;18.67;;
9108;SDS011;4590;51.462;6.692;2022-12-17T19:38:57;34.17;;;19.17;;
9108;SDS011;4590;51.462;6.692;2022-12-17T19:41:25;36.20;;;20.20;;
9108;SDS011;4590;51.462;6.692;2022-12-17T19:43:54;32.33;;;17.95;;
9108;SDS011;4590;51.462;6.692;2022-12-17T19:46:20;32.45;;;17.42;;
9108;SDS011;4590;51.462;6.692;2022-12-17T19:48:47;28.60;;;15.15;;
9108;SDS011;4590;51.462;6.692;2022-12-17T19:51:13;31.73;;;15.98;;
9108;SDS011;4590;51.462;6.692;2022-12-17T19:53:41;30.75;;;17.50;;
9108;SDS011;4590;51.462;6.692;2022-12-17T19:58:38;32.25;;;17.00;;
9108;SDS011;4590;51.462;6.692;2022-12-17T20:01:11;31.10;;;16.83;;
9108;SDS011;4590;51.462;6.692;2022-12-17T20:03:39;30.05;;;16.40;;
9108;SDS011;4590;51.462;6.692;2022-12-17T20:06:05;35.55;;;17.45;;
9108;SDS011;4590;51.462;6.692;2022-12-17T20:11:02;28.05;;;15.50;;
9108;SDS011;4590;51.462;6.692;2022-12-17T20:13:51;30.98;;;15.85;;
9108;SDS011;4590;51.462;6.692;2022-12-17T20:16:17;32.20;;;16.80;;
9108;SDS011;4590;51.462;6.692;2022-12-17T20:18:42;30.10;;;15.90;;
9108;SDS011;4590;51.462;6.692;2022-12-17T20:21:08;31.13;;;16.40;;
9108;SDS011;4590;51.462;6.692;2022-12-17T20:23:33;34.10;;;16.87;;
9108;SDS011;4590;51.462;6.692;2022-12-17T20:26:05;33.17;;;17.43;;
9108;SDS011;4590;51.462;6.692;2022-12-17T20:28:33;29.55;;;16.48;;
9108;SDS011;4590;51.462;6.692;2022-12-17T20:30:59;30.43;;;16.87;;
9108;SDS011;4590;51.462;6.692;2022-12-17T20:33:25;29.45;;;15.50;;
9108;SDS011;4590;51.462;6.692;2022-12-17T20:35:51;29.67;;;16.17;;
9108;SDS011;4590;51.462;6.692;2022-12-17T20:38:17;29.67;;;16.83;;
9108;SDS011;4590;51.462;6.692;2022-12-17T20:40:42;32.30;;;17.23;;
9108;SDS011;4590;51.462;6.692;2022-12-17T20:43:07;32.73;;;17.30;;
9108;SDS011;4590;51.462;6.692;2022-12-17T20:45:33;31.17;;;17.00;;